createdAt,value
2023-05-01T00:00:15.931Z,11.95
2023-05-01T00:02:48.820Z,11.86
2023-05-01T00:05:17.459Z,11.66
2023-05-01T00:07:46.951Z,11.85
2023-05-01T00:10:17.177Z,12.16
2023-05-01T00:12:46.952Z,11.39
2023-05-01T00:15:16.827Z,11.95
2023-05-01T00:17:45.892Z,11.50
2023-05-01T00:20:15.425Z,12.10
2023-05-01T00:22:44.814Z,11.62
2023-05-01T00:25:13.580Z,11.90
2023-05-01T00:27:45.584Z,11.76
2023-05-01T00:30:15.132Z,11.45
2023-05-01T00:32:43.971Z,11.30
2023-05-01T00:35:14.864Z,11.91
2023-05-01T00:37:44.119Z,11.96
2023-05-01T00:40:12.902Z,11.74
2023-05-01T00:42:42.706Z,11.35
2023-05-01T00:45:12.301Z,11.87
2023-05-01T00:47:42.685Z,11.86
2023-05-01T00:50:12.377Z,11.43
2023-05-01T00:52:41.642Z,11.89
2023-05-01T00:55:10.979Z,11.96
2023-05-01T00:57:39.798Z,11.76
2023-05-01T01:00:13.335Z,11.63
2023-05-01T01:02:46.033Z,11.42
2023-05-01T01:05:17.679Z,11.65
2023-05-01T01:07:58.961Z,11.67
2023-05-01T01:10:36.257Z,11.85
2023-05-01T01:13:29.154Z,11.60
2023-05-01T01:16:04.461Z,11.28
2023-05-01T01:18:40.637Z,9.84
2023-05-01T01:21:28.834Z,11.15
2023-05-01T01:24:34.691Z,11.17
2023-05-01T01:27:40.771Z,10.44
2023-05-01T01:30:39.019Z,10.99
2023-05-01T01:33:34.823Z,11.12
2023-05-01T01:36:17.565Z,11.16
2023-05-01T01:38:55.008Z,11.47
2023-05-01T01:41:32.464Z,11.13
2023-05-01T01:44:38.902Z,10.61
2023-05-01T01:47:12.703Z,11.66
2023-05-01T01:49:47.076Z,10.99
2023-05-01T01:52:18.868Z,10.75
2023-05-01T01:55:01.522Z,10.26
2023-05-01T01:57:32.294Z,11.23
2023-05-01T02:00:01.364Z,11.36
2023-05-01T02:02:34.197Z,11.58
2023-05-01T02:05:07.216Z,11.71
2023-05-01T02:07:41.455Z,11.38
2023-05-01T02:10:15.416Z,11.12
2023-05-01T02:12:46.803Z,11.36
2023-05-01T02:15:19.413Z,10.99
2023-05-01T02:17:49.304Z,11.29
2023-05-01T02:20:19.062Z,11.09
2023-05-01T02:22:49.264Z,10.88
2023-05-01T02:25:18.759Z,10.74
2023-05-01T02:28:13.196Z,10.64
2023-05-01T02:30:43.693Z,11.15
2023-05-01T02:33:13.862Z,11.37
2023-05-01T02:35:50.687Z,11.26
2023-05-01T02:38:21.270Z,11.02
2023-05-01T02:40:57.338Z,10.66
2023-05-01T02:43:28.382Z,10.83
2023-05-01T02:46:00.190Z,10.56
2023-05-01T02:48:31.804Z,11.00
2023-05-01T02:51:02.849Z,11.12
2023-05-01T02:53:33.276Z,10.80
2023-05-01T02:56:11.449Z,10.83
2023-05-01T02:58:41.529Z,10.76
2023-05-01T03:01:11.946Z,10.54
2023-05-01T03:03:42.531Z,10.59
2023-05-01T03:06:12.704Z,10.52
2023-05-01T03:08:45.353Z,10.61
2023-05-01T03:11:16.607Z,10.81
2023-05-01T03:13:46.547Z,10.93
2023-05-01T03:16:15.609Z,10.91
2023-05-01T03:18:44.892Z,10.84
2023-05-01T03:21:13.506Z,10.70
2023-05-01T03:23:42.917Z,10.64
2023-05-01T03:26:12.125Z,10.61
2023-05-01T03:28:41.330Z,10.62
2023-05-01T03:31:10.692Z,10.57
2023-05-01T03:33:42.403Z,10.68
2023-05-01T03:36:14.071Z,10.74
2023-05-01T03:38:44.668Z,10.93
2023-05-01T03:41:13.695Z,10.12
2023-05-01T03:44:03.852Z,10.28
2023-05-01T03:46:42.757Z,10.31
2023-05-01T03:49:17.967Z,10.18
2023-05-01T03:51:50.461Z,10.02
2023-05-01T03:54:20.768Z,10.40
2023-05-01T03:56:59.518Z,10.30
2023-05-01T03:59:28.079Z,10.38
2023-05-01T04:01:57.181Z,10.47
2023-05-01T04:04:28.261Z,10.29
2023-05-01T04:06:59.552Z,10.30
2023-05-01T04:09:30.417Z,10.23
2023-05-01T04:12:00.864Z,10.27
2023-05-01T04:14:29.910Z,10.32
2023-05-01T04:17:00.560Z,9.85
2023-05-01T04:19:30.955Z,10.01
2023-05-01T04:22:02.717Z,10.17
2023-05-01T04:24:33.111Z,10.07
2023-05-01T04:27:01.914Z,10.25
2023-05-01T04:29:30.747Z,10.15
2023-05-01T04:31:59.449Z,10.17
2023-05-01T04:34:30.478Z,10.54
2023-05-01T04:36:59.301Z,10.38
2023-05-01T04:39:29.055Z,10.18
2023-05-01T04:41:59.469Z,10.30
2023-05-01T04:44:28.613Z,10.57
2023-05-01T04:46:57.410Z,10.61
2023-05-01T04:49:26.759Z,9.83
2023-05-01T04:51:55.603Z,9.85
2023-05-01T04:54:26.774Z,10.24
2023-05-01T04:56:55.036Z,10.22
2023-05-01T04:59:23.978Z,9.98
2023-05-01T05:01:57.686Z,8.84
2023-05-01T05:04:28.088Z,9.91
2023-05-01T05:06:58.995Z,10.02
2023-05-01T05:09:40.764Z,10.52
2023-05-01T05:12:09.309Z,10.26
2023-05-01T05:14:38.602Z,10.55
2023-05-01T05:17:08.058Z,10.49
2023-05-01T05:19:36.846Z,9.86
2023-05-01T05:22:06.767Z,10.23
2023-05-01T05:24:48.078Z,9.94
2023-05-01T05:27:18.355Z,9.74
2023-05-01T05:29:48.002Z,9.93
2023-05-01T05:32:18.117Z,10.01
2023-05-01T05:34:48.266Z,9.73
2023-05-01T05:37:18.647Z,10.02
2023-05-01T05:39:53.817Z,9.75
2023-05-01T05:42:24.278Z,9.89
2023-05-01T05:44:53.545Z,9.87
2023-05-01T05:47:22.960Z,9.99
2023-05-01T05:49:51.835Z,9.79
2023-05-01T05:52:21.183Z,9.89
2023-05-01T05:54:51.060Z,10.10
2023-05-01T05:57:20.175Z,10.01
2023-05-01T05:59:51.743Z,9.82
2023-05-01T06:02:24.709Z,10.02
2023-05-01T06:04:53.052Z,10.45
2023-05-01T06:07:24.179Z,10.17
2023-05-01T06:09:55.657Z,9.90
2023-05-01T06:12:25.212Z,10.06
2023-05-01T06:14:54.701Z,10.16
2023-05-01T06:17:24.756Z,10.08
2023-05-01T06:19:54.327Z,10.18
2023-05-01T06:22:24.612Z,10.11
2023-05-01T06:25:03.448Z,10.33
2023-05-01T06:27:33.095Z,10.38
2023-05-01T06:30:01.784Z,10.61
2023-05-01T06:32:33.058Z,10.13
2023-05-01T06:35:03.188Z,10.36
2023-05-01T06:37:33.027Z,10.46
2023-05-01T06:40:02.943Z,10.14
2023-05-01T06:42:32.508Z,10.32
2023-05-01T06:45:04.539Z,10.41
2023-05-01T06:47:35.428Z,9.83
2023-05-01T06:50:05.858Z,10.00
2023-05-01T06:52:35.302Z,10.20
2023-05-01T06:55:04.583Z,10.37
2023-05-01T06:57:33.600Z,10.21
2023-05-01T07:00:04.553Z,10.49
2023-05-01T07:02:33.318Z,10.22
2023-05-01T07:05:02.762Z,10.25
2023-05-01T07:07:31.877Z,10.56
2023-05-01T07:10:01.433Z,10.57
2023-05-01T07:12:31.526Z,10.46
2023-05-01T07:15:00.531Z,9.94
2023-05-01T07:17:31.590Z,9.89
2023-05-01T07:20:05.654Z,9.94
2023-05-01T07:22:35.028Z,10.17
2023-05-01T07:25:04.945Z,10.06
2023-05-01T07:27:34.938Z,9.99
2023-05-01T07:30:05.795Z,10.63
2023-05-01T07:32:35.249Z,10.17
2023-05-01T07:35:04.389Z,10.58
2023-05-01T07:37:33.485Z,10.28
2023-05-01T07:40:04.938Z,9.73
2023-05-01T07:42:35.273Z,10.48
2023-05-01T07:45:04.379Z,10.32
2023-05-01T07:47:33.494Z,10.12
2023-05-01T07:50:03.128Z,10.44
2023-05-01T07:52:31.810Z,10.41
2023-05-01T07:55:00.478Z,10.52
2023-05-01T07:57:29.387Z,10.21
2023-05-01T07:59:59.708Z,9.93
2023-05-01T08:02:29.695Z,10.50
2023-05-01T08:05:00.175Z,10.29
2023-05-01T08:07:30.146Z,10.41
2023-05-01T08:10:01.137Z,10.01
2023-05-01T08:12:32.649Z,10.38
2023-05-01T08:15:01.505Z,10.57
2023-05-01T08:17:32.222Z,10.16
2023-05-01T08:20:07.007Z,10.06
2023-05-01T08:22:37.334Z,9.42
2023-05-01T08:25:07.333Z,10.19
2023-05-01T08:27:37.431Z,9.83
2023-05-01T08:30:08.421Z,10.21
2023-05-01T08:32:36.964Z,10.35
2023-05-01T08:35:05.705Z,10.17
2023-05-01T08:37:36.094Z,10.09
2023-05-01T08:40:09.271Z,10.48
2023-05-01T08:42:40.067Z,10.26
2023-05-01T08:45:11.605Z,10.37
2023-05-01T08:47:41.524Z,10.31
2023-05-01T08:50:12.651Z,10.29
2023-05-01T08:52:45.032Z,10.55
2023-05-01T08:55:19.955Z,9.89
2023-05-01T08:57:49.263Z,10.08
2023-05-01T09:00:21.223Z,10.42
2023-05-01T09:02:52.663Z,10.17
2023-05-01T09:05:21.884Z,10.43
2023-05-01T09:07:51.685Z,9.74
2023-05-01T09:10:22.704Z,10.14
2023-05-01T09:12:59.019Z,10.08
2023-05-01T09:15:29.307Z,10.14
2023-05-01T09:18:03.496Z,10.31
2023-05-01T09:20:34.195Z,9.79
2023-05-01T09:23:03.016Z,10.08
2023-05-01T09:25:32.525Z,9.72
2023-05-01T09:28:02.489Z,10.17
2023-05-01T09:30:39.080Z,9.83
2023-05-01T09:33:16.219Z,10.16
2023-05-01T09:35:51.385Z,10.28
2023-05-01T09:38:25.327Z,10.29
2023-05-01T09:40:57.085Z,9.51
2023-05-01T09:43:31.149Z,9.93
2023-05-01T09:46:13.508Z,10.09
2023-05-01T09:49:00.624Z,9.92
2023-05-01T09:51:37.631Z,10.35
2023-05-01T09:54:07.556Z,10.37
2023-05-01T09:56:48.530Z,10.31
2023-05-01T09:59:20.763Z,10.59
2023-05-01T10:01:51.165Z,10.04
2023-05-01T10:04:32.234Z,10.39
2023-05-01T10:07:21.549Z,9.97
2023-05-01T10:09:52.955Z,10.48
2023-05-01T10:12:28.639Z,10.60
2023-05-01T10:15:13.758Z,10.61
2023-05-01T10:17:52.805Z,10.17
2023-05-01T10:20:21.544Z,10.53
2023-05-01T10:22:51.889Z,10.45
2023-05-01T10:25:22.851Z,10.66
2023-05-01T10:27:53.493Z,10.37
2023-05-01T10:30:23.204Z,10.56
2023-05-01T10:32:53.435Z,10.44
2023-05-01T10:35:30.736Z,10.80
2023-05-01T10:38:13.221Z,10.91
2023-05-01T10:40:51.205Z,10.72
2023-05-01T10:43:31.436Z,10.61
2023-05-01T10:46:10.088Z,10.44
2023-05-01T10:48:39.759Z,10.60
2023-05-01T10:51:13.489Z,10.70
2023-05-01T10:53:47.534Z,10.63
2023-05-01T10:56:34.956Z,10.25
2023-05-01T10:59:08.537Z,10.04
2023-05-01T11:01:41.895Z,10.14
2023-05-01T11:04:48.917Z,10.43
2023-05-01T11:07:20.190Z,10.30
2023-05-01T11:09:56.126Z,10.18
2023-05-01T11:12:52.292Z,9.91
2023-05-01T11:15:32.878Z,9.88
2023-05-01T11:18:04.518Z,10.39
2023-05-01T11:20:40.160Z,10.21
2023-05-01T11:23:10.142Z,9.79
2023-05-01T11:25:41.228Z,10.46
2023-05-01T11:28:11.005Z,10.31
2023-05-01T11:30:43.496Z,10.70
2023-05-01T11:33:13.948Z,10.34
2023-05-01T11:35:47.406Z,10.14
2023-05-01T11:38:22.444Z,10.33
2023-05-01T11:40:59.037Z,10.34
2023-05-01T11:43:28.927Z,10.28
2023-05-01T11:46:03.829Z,10.34
2023-05-01T11:48:33.350Z,10.15
2023-05-01T11:51:13.411Z,9.64
2023-05-01T11:53:45.806Z,10.30
2023-05-01T11:56:26.938Z,9.85
2023-05-01T11:59:01.365Z,9.94
2023-05-01T12:01:40.667Z,9.97
2023-05-01T12:04:09.756Z,10.25
2023-05-01T12:06:41.511Z,9.80
2023-05-01T12:09:20.160Z,9.80
2023-05-01T12:11:53.123Z,10.04
2023-05-01T12:14:23.395Z,10.18
2023-05-01T12:16:52.474Z,10.28
2023-05-01T12:19:23.931Z,10.21
2023-05-01T12:22:08.369Z,9.69
2023-05-01T12:24:38.321Z,10.07
2023-05-01T12:27:09.725Z,9.95
2023-05-01T12:29:43.561Z,9.98
2023-05-01T12:32:13.291Z,9.63
2023-05-01T12:34:47.297Z,9.70
2023-05-01T12:37:17.605Z,10.20
2023-05-01T12:39:48.559Z,9.98
2023-05-01T12:42:19.361Z,10.18
2023-05-01T12:44:49.052Z,9.72
2023-05-01T12:47:18.942Z,10.29
2023-05-01T12:49:49.397Z,10.13
2023-05-01T12:52:28.861Z,9.67
2023-05-01T12:55:05.985Z,9.46
2023-05-01T12:57:35.660Z,9.57
2023-05-01T13:00:05.755Z,9.61
2023-05-01T13:02:36.013Z,9.51
2023-05-01T13:05:10.712Z,9.23
2023-05-01T13:07:40.923Z,9.39
2023-05-01T13:10:09.813Z,9.81
2023-05-01T13:12:46.137Z,9.76
2023-05-01T13:15:23.081Z,9.87
2023-05-01T13:17:52.330Z,9.83
2023-05-01T13:20:28.826Z,9.78
2023-05-01T13:23:01.080Z,10.05
2023-05-01T13:25:29.664Z,9.37
2023-05-01T13:28:03.206Z,9.33
2023-05-01T13:30:36.034Z,9.08
2023-05-01T13:33:08.483Z,9.38
2023-05-01T13:35:40.182Z,9.24
2023-05-01T13:38:13.322Z,9.43
2023-05-01T13:40:43.133Z,9.62
2023-05-01T13:43:16.989Z,9.46
2023-05-01T13:45:48.165Z,9.14
2023-05-01T13:48:19.712Z,9.27
2023-05-01T13:50:49.986Z,9.59
2023-05-01T13:53:24.312Z,9.53
2023-05-01T13:55:54.060Z,9.16
2023-05-01T13:58:23.229Z,9.66
2023-05-01T14:00:52.589Z,9.61
2023-05-01T14:03:21.655Z,9.13
2023-05-01T14:05:51.080Z,9.08
2023-05-01T14:08:28.886Z,9.03
2023-05-01T14:10:59.613Z,9.53
2023-05-01T14:13:28.383Z,9.10
2023-05-01T14:16:06.821Z,8.34
2023-05-01T14:18:36.528Z,9.03
2023-05-01T14:21:06.192Z,8.91
2023-05-01T14:23:35.769Z,8.81
2023-05-01T14:26:05.491Z,8.66
2023-05-01T14:28:34.910Z,9.15
2023-05-01T14:31:04.074Z,9.10
2023-05-01T14:33:34.172Z,8.54
2023-05-01T14:36:03.226Z,8.80
2023-05-01T14:38:39.325Z,8.36
2023-05-01T14:41:14.031Z,8.60
2023-05-01T14:43:47.707Z,8.31
2023-05-01T14:46:28.643Z,8.25
2023-05-01T14:48:57.710Z,8.76
2023-05-01T14:51:29.286Z,8.53
2023-05-01T14:53:59.466Z,8.51
2023-05-01T14:56:28.425Z,9.01
2023-05-01T14:58:57.752Z,8.69
2023-05-01T15:01:27.553Z,8.71
2023-05-01T15:03:56.799Z,8.91
2023-05-01T15:06:29.085Z,8.42
2023-05-01T15:08:58.129Z,8.82
2023-05-01T15:11:27.442Z,8.59
2023-05-01T15:13:56.264Z,8.95
2023-05-01T15:16:25.384Z,8.92
2023-05-01T15:18:54.688Z,8.67
2023-05-01T15:21:23.402Z,8.50
2023-05-01T15:23:53.175Z,8.59
2023-05-01T15:26:22.034Z,8.88
2023-05-01T15:28:51.392Z,8.59
2023-05-01T15:31:20.716Z,8.40
2023-05-01T15:33:51.222Z,8.65
2023-05-01T15:36:22.835Z,8.76
2023-05-01T15:38:51.524Z,8.78
2023-05-01T15:41:20.513Z,8.32
2023-05-01T15:43:49.168Z,8.69
2023-05-01T15:46:18.919Z,8.24
2023-05-01T15:48:47.604Z,8.19
2023-05-01T15:51:17.188Z,8.24
2023-05-01T15:53:48.238Z,8.72
2023-05-01T15:56:19.228Z,8.38
2023-05-01T15:58:49.184Z,8.79
2023-05-01T16:01:21.269Z,8.83
2023-05-01T16:03:50.400Z,8.51
2023-05-01T16:06:20.786Z,8.53
2023-05-01T16:08:50.032Z,8.38
2023-05-01T16:11:19.966Z,8.26
2023-05-01T16:13:49.920Z,8.20
2023-05-01T16:16:30.489Z,7.96
2023-05-01T16:19:01.049Z,8.37
2023-05-01T16:21:29.578Z,8.48
2023-05-01T16:23:58.948Z,8.31
2023-05-01T16:26:29.623Z,8.30
2023-05-01T16:29:01.654Z,8.47
2023-05-01T16:31:39.335Z,8.29
2023-05-01T16:34:11.351Z,8.61
2023-05-01T16:36:44.178Z,8.60
2023-05-01T16:39:21.920Z,8.48
2023-05-01T16:41:55.439Z,8.28
2023-05-01T16:44:25.055Z,8.39
2023-05-01T16:46:54.828Z,8.40
2023-05-01T16:49:25.026Z,8.32
2023-05-01T16:52:04.266Z,8.61
2023-05-01T16:54:36.691Z,8.34
2023-05-01T16:57:05.992Z,8.22
2023-05-01T16:59:36.086Z,8.17
2023-05-01T17:02:06.210Z,8.88
2023-05-01T17:04:35.256Z,8.67
2023-05-01T17:07:04.153Z,8.85
2023-05-01T17:09:33.255Z,8.92
2023-05-01T17:12:05.045Z,8.93
2023-05-01T17:14:33.782Z,8.39
2023-05-01T17:17:04.538Z,8.91
2023-05-01T17:19:36.377Z,8.37
2023-05-01T17:22:06.123Z,8.77
2023-05-01T17:24:37.319Z,8.33
2023-05-01T17:27:07.846Z,8.51
2023-05-01T17:29:37.964Z,8.13
2023-05-01T17:32:09.001Z,8.30
2023-05-01T17:34:38.078Z,8.36
2023-05-01T17:37:09.069Z,8.00
2023-05-01T17:39:37.544Z,7.88
2023-05-01T17:42:06.297Z,8.11
2023-05-01T17:44:35.896Z,8.24
2023-05-01T17:47:04.683Z,8.50
2023-05-01T17:49:33.683Z,8.25
2023-05-01T17:52:03.241Z,8.05
2023-05-01T17:54:31.858Z,8.32
2023-05-01T17:57:00.762Z,8.34
2023-05-01T17:59:31.733Z,8.03
2023-05-01T18:02:00.803Z,8.17
2023-05-01T18:04:30.175Z,8.41
2023-05-01T18:06:59.884Z,8.12
2023-05-01T18:09:28.954Z,8.09
2023-05-01T18:11:57.615Z,8.38
2023-05-01T18:14:27.332Z,8.38
2023-05-01T18:16:56.829Z,8.63
2023-05-01T18:19:25.669Z,8.60
2023-05-01T18:21:54.439Z,8.33
2023-05-01T18:24:23.662Z,8.69
2023-05-01T18:26:52.764Z,8.38
2023-05-01T18:29:25.661Z,8.37
2023-05-01T18:31:59.751Z,9.01
2023-05-01T18:34:29.507Z,8.69
2023-05-01T18:36:59.112Z,8.42
2023-05-01T18:39:27.712Z,8.45
2023-05-01T18:41:56.866Z,8.30
2023-05-01T18:44:26.906Z,8.34
2023-05-01T18:46:55.745Z,8.35
2023-05-01T18:49:26.666Z,8.35
2023-05-01T18:51:55.723Z,8.72
2023-05-01T18:54:25.298Z,8.19
2023-05-01T18:56:53.940Z,8.36
2023-05-01T18:59:23.452Z,8.73
2023-05-01T19:01:54.827Z,8.67
2023-05-01T19:04:25.553Z,8.68
2023-05-01T19:06:55.470Z,8.32
2023-05-01T19:09:24.882Z,8.47
2023-05-01T19:11:53.043Z,8.68
2023-05-01T19:14:22.205Z,8.76
2023-05-01T19:16:51.476Z,8.82
2023-05-01T19:19:20.907Z,8.47
2023-05-01T19:21:51.673Z,8.79
2023-05-01T19:24:21.238Z,8.43
2023-05-01T19:26:49.904Z,8.17
2023-05-01T19:29:19.381Z,8.58
2023-05-01T19:31:48.257Z,8.41
2023-05-01T19:34:17.403Z,8.66
2023-05-01T19:36:47.354Z,8.70
2023-05-01T19:39:17.298Z,8.63
2023-05-01T19:41:47.598Z,8.37
2023-05-01T19:44:17.607Z,8.28
2023-05-01T19:46:47.399Z,8.83
2023-05-01T19:49:17.539Z,8.32
2023-05-01T19:51:47.708Z,8.50
2023-05-01T19:54:18.312Z,8.42
2023-05-01T19:56:50.294Z,8.42
2023-05-01T19:59:21.030Z,8.77
2023-05-01T20:01:49.684Z,8.62
2023-05-01T20:04:19.037Z,8.52
2023-05-01T20:06:49.472Z,8.93
2023-05-01T20:09:19.376Z,8.91
2023-05-01T20:11:48.813Z,8.43
2023-05-01T20:14:17.644Z,8.86
2023-05-01T20:16:47.057Z,8.37
2023-05-01T20:19:18.194Z,8.92
2023-05-01T20:21:47.194Z,8.81
2023-05-01T20:24:17.160Z,8.67
2023-05-01T20:26:46.210Z,8.56
2023-05-01T20:29:15.675Z,8.62
2023-05-01T20:31:45.061Z,8.85
2023-05-01T20:34:13.392Z,8.78
2023-05-01T20:36:44.187Z,8.32
2023-05-01T20:39:13.460Z,8.56
2023-05-01T20:41:44.595Z,8.52
2023-05-01T20:44:13.545Z,8.35
2023-05-01T20:46:45.047Z,8.28
2023-05-01T20:49:15.828Z,8.24
2023-05-01T20:51:45.511Z,8.24
2023-05-01T20:54:15.333Z,8.34
2023-05-01T20:56:44.313Z,8.34
2023-05-01T20:59:15.404Z,8.34
2023-05-01T21:01:45.149Z,8.49
2023-05-01T21:04:15.170Z,8.71
2023-05-01T21:06:44.894Z,8.62
2023-05-01T21:09:16.840Z,8.37
2023-05-01T21:11:47.583Z,8.33
2023-05-01T21:14:17.611Z,8.73
2023-05-01T21:16:47.592Z,8.24
2023-05-01T21:19:17.298Z,8.36
2023-05-01T21:21:46.434Z,8.45
2023-05-01T21:24:25.859Z,8.39
2023-05-01T21:26:55.832Z,8.65
2023-05-01T21:29:25.375Z,8.22
2023-05-01T21:31:53.914Z,8.45
2023-05-01T21:34:22.672Z,8.50
2023-05-01T21:36:52.164Z,8.43
2023-05-01T21:39:22.754Z,8.84
2023-05-01T21:41:54.203Z,8.73
2023-05-01T21:44:29.644Z,8.50
2023-05-01T21:46:59.093Z,8.69
2023-05-01T21:49:28.866Z,8.44
2023-05-01T21:52:01.470Z,8.51
2023-05-01T21:54:35.697Z,8.45
2023-05-01T21:57:09.210Z,8.29
2023-05-01T21:59:41.576Z,8.63
2023-05-01T22:02:14.385Z,8.63
2023-05-01T22:04:44.171Z,8.44
2023-05-01T22:07:13.651Z,8.29
2023-05-01T22:09:45.302Z,8.18
2023-05-01T22:12:14.980Z,8.25
2023-05-01T22:14:47.866Z,7.99
2023-05-01T22:17:25.018Z,8.36
2023-05-01T22:19:54.402Z,8.51
2023-05-01T22:22:24.102Z,8.71
2023-05-01T22:24:53.349Z,8.82
2023-05-01T22:27:21.712Z,8.83
2023-05-01T22:29:51.117Z,8.59
2023-05-01T22:32:20.589Z,8.62
2023-05-01T22:34:49.600Z,8.43
2023-05-01T22:37:20.482Z,8.32
2023-05-01T22:39:49.679Z,8.62
2023-05-01T22:42:19.436Z,8.19
2023-05-01T22:44:48.912Z,7.92
2023-05-01T22:47:18.269Z,8.16
2023-05-01T22:49:47.931Z,8.00
2023-05-01T22:52:21.934Z,8.22
2023-05-01T22:54:54.239Z,7.72
2023-05-01T22:57:23.610Z,7.64
2023-05-01T22:59:52.260Z,7.80
2023-05-01T23:02:22.192Z,8.07
2023-05-01T23:04:52.939Z,7.91
2023-05-01T23:07:22.509Z,7.88
2023-05-01T23:09:53.531Z,7.70
2023-05-01T23:12:26.594Z,7.58
2023-05-01T23:14:56.210Z,7.75
2023-05-01T23:17:28.236Z,8.01
2023-05-01T23:20:00.132Z,8.12
2023-05-01T23:22:31.435Z,8.09
2023-05-01T23:24:59.798Z,8.33
2023-05-01T23:27:29.045Z,8.14
2023-05-01T23:29:58.748Z,8.22
2023-05-01T23:32:32.021Z,8.41
2023-05-01T23:35:25.963Z,7.91
2023-05-01T23:37:55.706Z,8.02
2023-05-01T23:40:25.594Z,8.20
2023-05-01T23:42:57.037Z,8.15
2023-05-01T23:45:26.936Z,8.22
2023-05-01T23:47:56.301Z,8.05
2023-05-01T23:50:27.908Z,8.06
2023-05-01T23:52:57.434Z,7.97
2023-05-01T23:55:26.657Z,7.49
2023-05-01T23:57:57.422Z,7.87
